createdAt,value
2019-03-24T00:01:41.010Z,102969.13
2019-03-24T00:04:39.888Z,102968.55
2019-03-24T00:07:44.538Z,102967.53
2019-03-24T00:10:49.359Z,102971.00
2019-03-24T00:13:53.967Z,102970.63
2019-03-24T00:16:58.674Z,102972.69
2019-03-24T00:20:03.354Z,102973.09
2019-03-24T00:23:08.122Z,102967.33
2019-03-24T00:26:14.574Z,102966.42
2019-03-24T00:29:20.569Z,102964.16
2019-03-24T00:32:26.157Z,102971.95
2019-03-24T00:35:31.363Z,102958.72
2019-03-24T00:38:36.179Z,102956.47
2019-03-24T00:41:40.966Z,102947.75
2019-03-24T00:44:45.626Z,102952.89
2019-03-24T00:47:50.632Z,102946.33
2019-03-24T00:50:55.386Z,102938.45
2019-03-24T00:54:00.070Z,102940.71
2019-03-24T00:57:04.808Z,102937.62
2019-03-24T01:00:10.604Z,102936.61
2019-03-24T01:03:16.197Z,102933.04
2019-03-24T01:06:21.184Z,102931.73
2019-03-24T01:09:25.958Z,102934.92
2019-03-24T01:12:30.802Z,102923.45
2019-03-24T01:15:35.838Z,102919.52
2019-03-24T01:18:40.706Z,102919.41
2019-03-24T01:21:45.516Z,102926.68
2019-03-24T01:24:50.417Z,102925.88
2019-03-24T01:27:58.158Z,102924.19
2019-03-24T01:31:03.288Z,102925.53
2019-03-24T01:34:08.542Z,102928.33
2019-03-24T01:37:14.548Z,102942.23
2019-03-24T01:40:20.080Z,102939.30
2019-03-24T01:43:25.114Z,102934.72
2019-03-24T01:46:30.673Z,102940.84
2019-03-24T01:49:36.733Z,102936.80
2019-03-24T01:52:42.563Z,102937.54
2019-03-24T01:55:47.742Z,102952.42
2019-03-24T01:58:52.804Z,102945.39
2019-03-24T02:02:01.396Z,102940.14
2019-03-24T02:05:09.155Z,102946.27
2019-03-24T02:08:15.842Z,102941.65
2019-03-24T02:11:21.098Z,102929.30
2019-03-24T02:14:26.115Z,102931.29
2019-03-24T02:17:30.924Z,102922.27
2019-03-24T02:20:39.211Z,102921.15
2019-03-24T02:23:44.686Z,102913.95
2019-03-24T02:26:50.579Z,102919.66
2019-03-24T02:29:57.931Z,102914.89
2019-03-24T02:33:06.336Z,102914.05
2019-03-24T02:36:13.255Z,102909.64
2019-03-24T02:39:21.176Z,102908.70
2019-03-24T02:42:26.590Z,102902.50
2019-03-24T02:45:32.511Z,102900.32
2019-03-24T02:48:38.974Z,102896.42
2019-03-24T02:51:44.474Z,102881.15
2019-03-24T02:54:49.927Z,102887.81
2019-03-24T02:57:55.380Z,102893.42
2019-03-24T03:01:02.510Z,102884.03
2019-03-24T03:04:39.494Z,102882.19
2019-03-24T03:08:13.472Z,102879.16
2019-03-24T03:11:21.654Z,102870.75
2019-03-24T03:14:27.133Z,102868.19
2019-03-24T03:17:32.653Z,102869.03
2019-03-24T03:20:39.014Z,102865.10
2019-03-24T03:23:43.898Z,102866.45
2019-03-24T03:26:48.784Z,102864.16
2019-03-24T03:29:53.436Z,102869.51
2019-03-24T03:32:59.127Z,102864.26
2019-03-24T03:36:06.128Z,102859.85
2019-03-24T03:39:12.177Z,102860.80
2019-03-24T03:42:18.006Z,102857.23
2019-03-24T03:45:34.502Z,102862.95
2019-03-24T03:48:46.470Z,102851.62
2019-03-24T03:51:53.900Z,102854.17
2019-03-24T03:54:59.420Z,102852.86
2019-03-24T03:58:07.659Z,102852.08
2019-03-24T04:01:13.641Z,102850.88
2019-03-24T04:04:23.134Z,102850.58
2019-03-24T04:07:33.919Z,102848.45
2019-03-24T04:10:41.106Z,102851.14
2019-03-24T04:13:48.215Z,102843.68
2019-03-24T04:17:07.109Z,102852.53
2019-03-24T04:20:06.495Z,102851.69
2019-03-24T04:23:15.136Z,102847.75
2019-03-24T04:26:24.554Z,102853.09
2019-03-24T04:29:30.841Z,102856.33
2019-03-24T04:32:38.890Z,102858.61
2019-03-24T04:35:47.333Z,102854.81
2019-03-24T04:38:57.975Z,102845.97
2019-03-24T04:42:04.067Z,102846.44
2019-03-24T04:45:11.731Z,102839.03
2019-03-24T04:48:19.986Z,102834.08
2019-03-24T04:51:26.321Z,102828.67
2019-03-24T04:54:37.738Z,102830.89
2019-03-24T05:15:48.643Z,102816.83
2019-03-24T05:19:25.590Z,102814.14
2019-03-24T05:28:13.069Z,102817.10
2019-03-24T05:31:57.848Z,102811.02
2019-03-24T05:48:02.257Z,102809.06
2019-03-24T05:51:35.311Z,102808.02
2019-03-24T05:55:54.147Z,102799.87
2019-03-24T06:16:28.143Z,102777.42
2019-03-24T06:29:22.175Z,102782.89
2019-03-24T06:42:18.180Z,102762.78
2019-03-24T06:46:08.414Z,102760.33
2019-03-24T06:49:44.643Z,102751.67
2019-03-24T06:53:28.784Z,102767.20
2019-03-24T07:00:54.547Z,102768.75
2019-03-24T07:04:19.223Z,102761.05
2019-03-24T07:12:58.514Z,102740.95
2019-03-24T07:16:24.170Z,102735.05
2019-03-24T07:19:28.527Z,102726.09
2019-03-24T07:22:32.997Z,102726.23
2019-03-24T07:25:37.432Z,102720.66
2019-03-24T07:28:45.931Z,102719.48
2019-03-24T07:31:50.420Z,102716.47
2019-03-24T07:34:54.784Z,102722.66
2019-03-24T07:37:59.173Z,102716.48
2019-03-24T07:41:03.723Z,102711.25
2019-03-24T07:44:08.102Z,102723.28
2019-03-24T07:47:15.743Z,102722.25
2019-03-24T07:50:20.107Z,102719.20
2019-03-24T07:53:24.568Z,102719.14
2019-03-24T07:56:28.926Z,102713.83
2019-03-24T07:59:33.372Z,102714.16
2019-03-24T08:02:37.710Z,102717.45
2019-03-24T08:05:42.066Z,102711.70
2019-03-24T08:08:46.462Z,102711.89
2019-03-24T08:11:50.929Z,102710.86
2019-03-24T08:14:55.316Z,102702.88
2019-03-24T08:17:59.683Z,102699.43
2019-03-24T08:21:04.139Z,102696.92
2019-03-24T08:24:08.499Z,102689.80
2019-03-24T08:27:12.869Z,102690.05
2019-03-24T08:30:24.385Z,102691.37
2019-03-24T08:33:28.760Z,102688.39
2019-03-24T08:36:33.131Z,102682.11
2019-03-24T08:39:37.589Z,102671.17
2019-03-24T08:42:42.139Z,102669.25
2019-03-24T08:45:46.500Z,102665.65
2019-03-24T08:48:50.849Z,102657.99
2019-03-24T08:51:55.186Z,102668.28
2019-03-24T08:54:59.923Z,102664.44
2019-03-24T08:58:04.584Z,102658.10
2019-03-24T09:01:08.951Z,102667.44
2019-03-24T09:04:13.358Z,102674.89
2019-03-24T09:07:17.736Z,102672.64
2019-03-24T09:10:22.272Z,102664.92
2019-03-24T09:13:26.690Z,102663.43
2019-03-24T09:16:31.062Z,102650.45
2019-03-24T09:19:35.431Z,102647.72
2019-03-24T09:22:39.802Z,102648.02
2019-03-24T09:25:44.428Z,102654.39
2019-03-24T09:28:48.800Z,102635.27
2019-03-24T09:31:53.280Z,102639.65
2019-03-24T09:34:57.636Z,102643.30
2019-03-24T09:38:02.087Z,102624.45
2019-03-24T09:41:06.522Z,102605.33
2019-03-24T09:44:10.908Z,102598.02
2019-03-24T09:47:15.268Z,102586.27
2019-03-24T09:50:19.720Z,102589.22
2019-03-24T09:53:24.198Z,102586.80
2019-03-24T09:56:28.582Z,102589.11
2019-03-24T09:59:32.967Z,102587.19
2019-03-24T10:02:37.306Z,102587.19
2019-03-24T10:05:41.668Z,102578.95
2019-03-24T10:08:47.253Z,102567.45
2019-03-24T10:11:52.050Z,102573.52
2019-03-24T10:14:56.415Z,102579.94
2019-03-24T10:18:00.795Z,102576.58
2019-03-24T10:21:05.170Z,102564.34
2019-03-24T10:24:09.553Z,102560.83
2019-03-24T10:27:13.931Z,102560.04
2019-03-24T10:30:18.422Z,102548.65
2019-03-24T10:33:22.801Z,102553.03
2019-03-24T10:36:27.168Z,102544.91
2019-03-24T10:39:32.060Z,102536.69
2019-03-24T10:42:36.635Z,102533.16
2019-03-24T10:45:41.025Z,102530.58
2019-03-24T10:48:45.453Z,102529.28
2019-03-24T10:51:49.818Z,102528.74
2019-03-24T10:54:54.209Z,102530.78
2019-03-24T10:57:58.721Z,102531.58
2019-03-24T11:01:03.200Z,102523.98
2019-03-24T11:04:07.677Z,102520.47
2019-03-24T11:07:12.065Z,102516.58
2019-03-24T11:10:16.496Z,102510.87
2019-03-24T11:13:20.836Z,102503.12
2019-03-24T11:16:25.363Z,102503.20
2019-03-24T11:19:35.620Z,102505.80
2019-03-24T11:22:35.860Z,102493.95
2019-03-24T11:25:40.287Z,102495.31
2019-03-24T11:28:44.648Z,102493.15
2019-03-24T11:31:49.021Z,102492.70
2019-03-24T11:34:53.397Z,102489.12
2019-03-24T11:37:57.772Z,102480.73
2019-03-24T11:41:02.241Z,102466.09
2019-03-24T11:44:06.748Z,102458.19
2019-03-24T11:47:11.117Z,102453.91
2019-03-24T11:50:15.758Z,102448.16
2019-03-24T11:53:20.121Z,102441.09
2019-03-24T11:56:24.493Z,102442.02
2019-03-24T11:59:28.933Z,102432.35
2019-03-24T12:02:33.289Z,102433.72
2019-03-24T12:05:37.889Z,102433.70
2019-03-24T12:08:42.428Z,102426.61
2019-03-24T12:11:46.791Z,102417.34
2019-03-24T12:14:51.142Z,102427.53
2019-03-24T12:17:55.580Z,102421.30
2019-03-24T12:21:00.034Z,102425.72
2019-03-24T12:24:04.505Z,102420.43
2019-03-24T12:27:08.872Z,102416.44
2019-03-24T12:30:13.609Z,102404.94
2019-03-24T12:33:17.979Z,102400.05
2019-03-24T12:36:22.344Z,102404.85
2019-03-24T12:39:26.698Z,102398.73
2019-03-24T12:42:31.094Z,102393.86
2019-03-24T12:45:35.443Z,102384.58
2019-03-24T12:48:39.819Z,102373.11
2019-03-24T12:51:44.208Z,102370.86
2019-03-24T12:54:48.640Z,102368.27
2019-03-24T12:57:53.006Z,102359.41
2019-03-24T13:00:57.366Z,102352.78
2019-03-24T13:04:01.743Z,102349.61
2019-03-24T13:07:06.239Z,102357.62
2019-03-24T13:10:11.815Z,102344.80
2019-03-24T13:13:16.366Z,102329.78
2019-03-24T13:16:20.782Z,102337.72
2019-03-24T13:19:25.251Z,102323.14
2019-03-24T13:22:29.634Z,102322.26
2019-03-24T13:25:36.261Z,102311.67
2019-03-24T13:28:40.255Z,102300.62
2019-03-24T13:31:44.613Z,102296.59
2019-03-24T13:34:48.968Z,102296.61
2019-03-24T13:37:53.356Z,102295.72
2019-03-24T13:40:57.718Z,102286.01
2019-03-24T13:44:02.180Z,102277.59
2019-03-24T13:47:06.709Z,102274.95
2019-03-24T13:50:11.304Z,102270.55
2019-03-24T13:53:15.774Z,102249.73
2019-03-24T13:56:20.232Z,102248.85
2019-03-24T13:59:24.600Z,102257.23
2019-03-24T14:02:28.955Z,102247.53
2019-03-24T14:05:33.404Z,102255.97
2019-03-24T14:08:37.766Z,102236.53
2019-03-24T14:11:42.237Z,102240.05
2019-03-24T14:14:46.635Z,102239.18
2019-03-24T14:17:51.066Z,102246.25
2019-03-24T14:20:55.452Z,102240.48
2019-03-24T14:23:59.909Z,102233.44
2019-03-24T14:27:04.457Z,102235.19
2019-03-24T14:30:10.127Z,102228.58
2019-03-24T14:33:15.105Z,102236.08
2019-03-24T14:36:19.473Z,102226.34
2019-03-24T14:39:23.963Z,102219.71
2019-03-24T14:42:28.447Z,102216.66
2019-03-24T14:45:32.881Z,102210.88
2019-03-24T14:48:37.280Z,102215.31
2019-03-24T14:51:41.682Z,102198.06
2019-03-24T14:54:46.053Z,102210.02
2019-03-24T14:57:50.599Z,102190.55
2019-03-24T15:00:54.980Z,102177.77
2019-03-24T15:03:59.389Z,102179.96
2019-03-24T15:07:03.727Z,102172.47
2019-03-24T15:10:08.934Z,102174.23
2019-03-24T15:13:13.382Z,102167.58
2019-03-24T15:16:17.753Z,102159.20
2019-03-24T15:19:22.138Z,102156.58
2019-03-24T15:22:26.568Z,102156.13
2019-03-24T15:25:31.030Z,102149.50
2019-03-24T15:28:35.514Z,102145.98
2019-03-24T15:31:39.899Z,102145.52
2019-03-24T15:34:44.299Z,102153.92
2019-03-24T15:37:48.610Z,102145.02
2019-03-24T15:40:53.076Z,102132.27
2019-03-24T15:43:57.505Z,102139.34
2019-03-24T15:47:01.885Z,102137.61
2019-03-24T15:50:06.805Z,102126.98
2019-03-24T15:53:11.290Z,102117.72
2019-03-24T15:56:15.681Z,102110.61
2019-03-24T15:59:20.049Z,102111.05
2019-03-24T16:02:24.491Z,102103.05
2019-03-24T16:05:28.888Z,102099.02
2019-03-24T16:08:33.330Z,102098.67
2019-03-24T16:11:37.833Z,102108.37
2019-03-24T16:14:42.209Z,102099.08
2019-03-24T16:17:46.577Z,102101.75
2019-03-24T16:20:50.933Z,102096.86
2019-03-24T16:23:55.311Z,102084.48
2019-03-24T16:26:59.827Z,102078.70
2019-03-24T16:30:04.693Z,102072.97
2019-03-24T16:33:09.260Z,102077.42
2019-03-24T16:36:13.699Z,102073.87
2019-03-24T16:39:18.072Z,102062.88
2019-03-24T16:42:22.452Z,102057.59
2019-03-24T16:45:26.788Z,102053.57
2019-03-24T16:48:36.734Z,102050.87
2019-03-24T16:51:38.789Z,102064.09
2019-03-24T16:54:43.494Z,102042.50
2019-03-24T16:57:49.770Z,102049.11
2019-03-24T17:00:54.036Z,102040.23
2019-03-24T17:03:58.400Z,102039.75
2019-03-24T17:07:02.850Z,102041.55
2019-03-24T17:10:07.703Z,102027.07
2019-03-24T17:13:12.083Z,102021.67
2019-03-24T17:16:16.447Z,102020.77
2019-03-24T17:19:20.880Z,102017.27
2019-03-24T17:22:25.257Z,102010.95
2019-03-24T17:25:29.681Z,102008.38
2019-03-24T17:28:34.032Z,101999.55
2019-03-24T17:31:46.809Z,101996.94
2019-03-24T17:34:51.249Z,101991.98
2019-03-24T17:37:55.688Z,101980.98
2019-03-24T17:41:00.589Z,101981.00
2019-03-24T17:44:05.063Z,101980.13
2019-03-24T17:47:09.406Z,101973.07
2019-03-24T17:50:14.208Z,101972.23
2019-03-24T17:53:18.588Z,101973.54
2019-03-24T17:56:22.974Z,101964.72
2019-03-24T17:59:27.316Z,101951.03
2019-03-24T18:02:31.691Z,101957.69
2019-03-24T18:05:36.138Z,101947.94
2019-03-24T18:08:42.852Z,101942.27
2019-03-24T18:11:48.863Z,101936.13
2019-03-24T18:14:57.125Z,101946.69
2019-03-24T18:18:18.285Z,101937.86
2019-03-24T18:21:25.901Z,101937.34
2019-03-24T18:24:31.608Z,101929.85
2019-03-24T18:27:36.328Z,101920.73
2019-03-24T18:30:42.200Z,101924.17
2019-03-24T18:33:48.771Z,101932.09
2019-03-24T18:36:57.085Z,101921.13
2019-03-24T18:40:08.850Z,101925.46
2019-03-24T19:01:49.081Z,101893.36
2019-03-24T19:13:45.645Z,101878.41
2019-03-24T19:35:17.156Z,101835.23
2019-03-24T19:43:22.005Z,101813.70
2019-03-24T22:54:17.377Z,101326.55
2019-03-24T22:58:32.839Z,101309.03
2019-03-24T23:06:11.754Z,101287.47
2019-03-24T23:09:37.260Z,101280.00
2019-03-24T23:12:45.263Z,101269.11
2019-03-24T23:15:50.291Z,101259.85
2019-03-24T23:18:54.838Z,101252.86
2019-03-24T23:21:59.209Z,101237.94
2019-03-24T23:25:03.791Z,101232.23
2019-03-24T23:28:08.348Z,101221.28
2019-03-24T23:31:12.729Z,101206.71
2019-03-24T23:34:17.189Z,101200.17
2019-03-24T23:37:22.003Z,101176.53
2019-03-24T23:40:26.547Z,101167.74
2019-03-24T23:43:31.069Z,101158.05
2019-03-24T23:46:35.456Z,101139.67
2019-03-24T23:49:39.824Z,101132.08
2019-03-24T23:52:44.198Z,101124.73
2019-03-24T23:55:48.681Z,101125.05
2019-03-24T23:58:53.146Z,101115.00
